Time;durP1;ratioP1;P1;durP2;ratioP2;P2;SDS_P1;SDS_P2;PMS_P1;PMS_P2;Temp;Humidity;BMP_temperature;BMP_pressure;BME280_temperature;BME280_humidity;BME280_pressure;Samples;Min_cycle;Max_cycle;Signal;HPM_P1;HPM_P2
2023/09/19 00:00:31;;;;;;;;;;;22.70;59.10;;;;;;5061478;28;19960;-61
2023/09/19 00:02:59;;;;;;;;;;;22.70;59.10;;;;;;5062991;28;19931;-61
2023/09/19 00:05:27;;;;;;;;;;;22.70;59.10;;;;;;5076605;28;19982;-61
2023/09/19 00:07:54;;;;;;;;;;;22.70;59.10;;;;;;5074802;28;19955;-60
2023/09/19 00:10:23;;;;;;;;;;;22.70;59.10;;;;;;5086229;28;20390;-59
2023/09/19 00:12:49;;;;;;;;;;;22.70;59.10;;;;;;5070182;28;19932;-58
2023/09/19 00:15:17;;;;;;;;;;;22.70;59.10;;;;;;5083915;28;19932;-60
2023/09/19 00:17:44;;;;;;;;;;;22.70;59.10;;;;;;5077554;28;19927;-59
2023/09/19 00:20:12;;;;;;;;;;;22.70;59.10;;;;;;5067414;28;19932;-59
2023/09/19 00:22:42;;;;;;;;;;;22.70;59.10;;;;;;5067948;28;19924;-60
2023/09/19 00:25:09;;;;;;;;;;;22.70;59.10;;;;;;5074014;28;19924;-59
2023/09/19 00:27:35;;;;;;;;;;;22.70;59.10;;;;;;5065469;28;19977;-59
2023/09/19 00:30:04;;;;;;;;;;;22.70;59.70;;;;;;5067660;28;19967;-60
2023/09/19 00:32:33;;;;;;;;;;;22.70;59.10;;;;;;5061987;28;19935;-60
2023/09/19 00:34:59;;;;;;;;;;;22.70;59.10;;;;;;5070657;28;19928;-60
2023/09/19 00:37:26;;;;;;;;;;;22.70;59.20;;;;;;5060814;28;20037;-60
2023/09/19 00:39:54;;;;;;;;;;;22.70;59.10;;;;;;5052616;28;20430;-60
2023/09/19 00:42:21;;;;;;;;;;;22.60;59.10;;;;;;5079379;28;19928;-60
2023/09/19 00:44:50;;;;;;;;;;;22.60;59.10;;;;;;5061215;28;19928;-60
2023/09/19 00:47:18;;;;;;;;;;;22.60;59.70;;;;;;5062102;28;20018;-60
2023/09/19 00:49:44;;;;;;;;;;;22.70;59.20;;;;;;5060561;28;19924;-60
2023/09/19 00:52:11;;;;;;;;;;;22.60;59.10;;;;;;5050891;28;19925;-60
2023/09/19 00:54:38;;;;;;;;;;;22.70;59.20;;;;;;5078530;28;19924;-60
2023/09/19 00:57:07;;;;;;;;;;;22.70;59.20;;;;;;5070784;28;19978;-60
2023/09/19 00:59:35;;;;;;;;;;;22.70;59.20;;;;;;5039069;28;19937;-60
2023/09/19 01:02:02;;;;;;;;;;;22.70;59.20;;;;;;5042908;28;20023;-58
2023/09/19 01:04:29;;;;;;;;;;;22.60;59.10;;;;;;5043900;28;19925;-59
2023/09/19 01:06:56;;;;;;;;;;;22.70;59.20;;;;;;5038311;28;20397;-60
2023/09/19 01:09:23;;;;;;;;;;;22.70;59.20;;;;;;5062113;28;19940;-60
2023/09/19 01:11:51;;;;;;;;;;;22.60;59.10;;;;;;5047068;28;19932;-60
2023/09/19 01:14:21;;;;;;;;;;;22.70;59.20;;;;;;5050821;28;20962;-60
2023/09/19 01:16:51;;;;;;;;;;;22.70;59.20;;;;;;5035258;28;19925;-61
2023/09/19 01:19:33;;;;;;;;;;;22.60;59.10;;;;;;5058890;28;21497;-60
2023/09/19 01:22:02;;;;;;;;;;;22.60;59.10;;;;;;5045547;28;19975;-60
2023/09/19 01:24:36;;;;;;;;;;;22.60;59.10;;;;;;5048005;28;19935;-59
2023/09/19 01:27:19;;;;;;;;;;;22.60;59.20;;;;;;5048108;28;19928;-60
2023/09/19 01:29:47;;;;;;;;;;;22.60;59.10;;;;;;5062687;28;19958;-60
2023/09/19 01:32:16;;;;;;;;;;;22.60;59.10;;;;;;5055900;28;19928;-59
2023/09/19 01:34:48;;;;;;;;;;;22.60;59.10;;;;;;5046964;28;19932;-59
2023/09/19 01:37:19;;;;;;;;;;;22.60;59.20;;;;;;5050303;28;19931;-60
2023/09/19 01:39:55;;;;;;;;;;;22.60;59.10;;;;;;5054117;28;19929;-60
2023/09/19 01:42:25;;;;;;;;;;;22.60;59.10;;;;;;5041263;28;19925;-60
2023/09/19 01:44:55;;;;;;;;;;;22.60;59.10;;;;;;5041523;28;19924;-61
2023/09/19 01:47:27;;;;;;;;;;;22.60;59.10;;;;;;5034091;28;19970;-60
2023/09/19 01:49:57;;;;;;;;;;;22.60;59.10;;;;;;5041539;28;19931;-60
2023/09/19 01:52:25;;;;;;;;;;;22.60;59.10;;;;;;5021413;28;19928;-61
2023/09/19 01:54:52;;;;;;;;;;;22.60;59.10;;;;;;5063901;28;19935;-61
2023/09/19 01:57:22;;;;;;;;;;;22.60;59.10;;;;;;5047602;28;19935;-59
2023/09/19 01:59:50;;;;;;;;;;;22.60;59.00;;;;;;5075598;28;19959;-60
2023/09/19 02:02:17;;;;;;;;;;;22.60;59.00;;;;;;5091988;28;19924;-60
2023/09/19 02:04:45;;;;;;;;;;;22.60;59.00;;;;;;5089372;28;19928;-60
2023/09/19 02:07:12;;;;;;;;;;;22.60;59.00;;;;;;5077689;28;19929;-61
2023/09/19 02:09:39;;;;;;;;;;;22.60;59.00;;;;;;5078878;28;19924;-60
2023/09/19 02:12:07;;;;;;;;;;;22.60;59.00;;;;;;5082862;28;19924;-61
2023/09/19 02:14:34;;;;;;;;;;;22.60;58.90;;;;;;5093864;28;19959;-60
2023/09/19 02:17:00;;;;;;;;;;;22.60;59.00;;;;;;5092520;28;20354;-61
2023/09/19 02:19:28;;;;;;;;;;;22.60;58.90;;;;;;5101635;28;19924;-60
2023/09/19 02:21:57;;;;;;;;;;;22.60;58.90;;;;;;5076304;28;19925;-61
2023/09/19 02:24:26;;;;;;;;;;;22.60;58.90;;;;;;5064014;28;19928;-61
2023/09/19 02:26:54;;;;;;;;;;;22.60;58.90;;;;;;5071734;28;20015;-60
2023/09/19 02:29:22;;;;;;;;;;;22.60;58.90;;;;;;5082975;28;19924;-61
2023/09/19 02:31:48;;;;;;;;;;;22.60;58.90;;;;;;5073177;28;19963;-60
2023/09/19 02:34:16;;;;;;;;;;;22.60;58.80;;;;;;5106830;28;19924;-60
2023/09/19 02:36:44;;;;;;;;;;;22.60;58.80;;;;;;5081916;28;19948;-60
2023/09/19 02:39:12;;;;;;;;;;;22.60;58.80;;;;;;5080015;28;19924;-60
2023/09/19 02:41:41;;;;;;;;;;;22.60;58.70;;;;;;5072350;28;19924;-60
2023/09/19 02:44:08;;;;;;;;;;;22.60;58.70;;;;;;5083287;28;20023;-60
2023/09/19 02:46:36;;;;;;;;;;;22.60;58.70;;;;;;5088210;28;19928;-60
2023/09/19 02:49:03;;;;;;;;;;;22.60;58.60;;;;;;5080461;28;19924;-60
2023/09/19 02:51:32;;;;;;;;;;;22.60;58.50;;;;;;5082233;28;19932;-60
2023/09/19 02:53:59;;;;;;;;;;;22.60;58.50;;;;;;5089129;28;19935;-60
2023/09/19 02:56:27;;;;;;;;;;;22.50;58.40;;;;;;5089291;28;19971;-60
2023/09/19 02:58:55;;;;;;;;;;;22.60;58.40;;;;;;5077080;28;19935;-61
2023/09/19 03:01:22;;;;;;;;;;;22.60;58.40;;;;;;5079854;28;19920;-60
2023/09/19 03:03:50;;;;;;;;;;;22.60;58.30;;;;;;5087843;28;19928;-60
2023/09/19 03:06:20;;;;;;;;;;;22.60;58.30;;;;;;5100576;28;19931;-60
2023/09/19 03:08:48;;;;;;;;;;;22.50;58.20;;;;;;5080267;28;19924;-60
2023/09/19 03:11:18;;;;;;;;;;;22.50;58.10;;;;;;5100897;28;19924;-60
2023/09/19 03:13:47;;;;;;;;;;;22.50;58.10;;;;;;5069635;28;19924;-60
2023/09/19 03:16:15;;;;;;;;;;;22.50;58.10;;;;;;5106470;28;19963;-60
2023/09/19 03:18:41;;;;;;;;;;;22.50;58.00;;;;;;5079945;28;19924;-59
2023/09/19 03:21:08;;;;;;;;;;;22.50;58.00;;;;;;5084659;28;20293;-60
2023/09/19 03:23:35;;;;;;;;;;;22.50;58.00;;;;;;5087176;28;19924;-60
2023/09/19 03:26:04;;;;;;;;;;;22.50;58.00;;;;;;5089980;28;20291;-59
2023/09/19 03:28:33;;;;;;;;;;;22.50;57.90;;;;;;5083449;28;19924;-60
2023/09/19 03:31:02;;;;;;;;;;;22.50;57.90;;;;;;5088701;28;19924;-60
2023/09/19 03:33:31;;;;;;;;;;;22.50;57.90;;;;;;5086350;28;19931;-60
2023/09/19 03:35:58;;;;;;;;;;;22.50;57.80;;;;;;5102274;28;19963;-61
2023/09/19 03:38:25;;;;;;;;;;;22.50;57.80;;;;;;5074624;28;20372;-61
2023/09/19 03:40:52;;;;;;;;;;;22.50;57.70;;;;;;5079674;28;19968;-61
2023/09/19 03:43:20;;;;;;;;;;;22.50;57.60;;;;;;5100177;28;19928;-61
2023/09/19 03:45:48;;;;;;;;;;;22.50;57.60;;;;;;5069737;28;19932;-61
2023/09/19 03:48:17;;;;;;;;;;;22.50;57.50;;;;;;5088685;28;19928;-60
2023/09/19 03:50:44;;;;;;;;;;;22.50;57.40;;;;;;5077004;28;19969;-60
2023/09/19 03:53:11;;;;;;;;;;;22.50;57.30;;;;;;5071947;28;19968;-60
2023/09/19 03:55:38;;;;;;;;;;;22.40;57.10;;;;;;5079278;28;20023;-60
2023/09/19 03:58:05;;;;;;;;;;;22.50;57.00;;;;;;5071860;28;19929;-61
2023/09/19 04:00:32;;;;;;;;;;;22.40;56.80;;;;;;5051584;28;19995;-62
2023/09/19 04:03:00;;;;;;;;;;;22.40;56.60;;;;;;5073050;28;19928;-60
2023/09/19 04:05:28;;;;;;;;;;;22.40;56.50;;;;;;5082488;28;19924;-61
2023/09/19 04:07:56;;;;;;;;;;;22.40;56.30;;;;;;5090978;28;21970;-60
2023/09/19 04:10:23;;;;;;;;;;;22.40;56.10;;;;;;5065177;28;19924;-60
2023/09/19 04:12:53;;;;;;;;;;;22.40;56.00;;;;;;5095511;28;19924;-60
2023/09/19 04:15:22;;;;;;;;;;;22.40;55.70;;;;;;5086200;28;19928;-60
2023/09/19 04:17:49;;;;;;;;;;;22.40;55.50;;;;;;5069580;28;20015;-61
2023/09/19 04:20:17;;;;;;;;;;;22.40;55.30;;;;;;5087893;28;19932;-60
2023/09/19 04:22:46;;;;;;;;;;;22.40;55.10;;;;;;5081562;28;20343;-60
2023/09/19 04:25:12;;;;;;;;;;;22.30;54.90;;;;;;5072676;28;19936;-60
2023/09/19 04:27:39;;;;;;;;;;;22.30;54.70;;;;;;5078096;28;19994;-61
2023/09/19 04:30:10;;;;;;;;;;;22.30;54.60;;;;;;5104406;28;20039;-60
2023/09/19 04:32:38;;;;;;;;;;;22.30;54.40;;;;;;5098405;28;19924;-59
2023/09/19 04:35:08;;;;;;;;;;;22.30;54.30;;;;;;5091039;28;20000;-60
2023/09/19 04:37:37;;;;;;;;;;;22.30;54.20;;;;;;5069357;28;19928;-60
2023/09/19 04:40:06;;;;;;;;;;;22.30;54.10;;;;;;5103166;28;19924;-61
2023/09/19 04:42:33;;;;;;;;;;;22.30;54.00;;;;;;5069711;28;19983;-60
2023/09/19 04:45:00;;;;;;;;;;;22.30;53.90;;;;;;5077216;28;19924;-60
2023/09/19 04:47:27;;;;;;;;;;;22.20;53.80;;;;;;5081066;28;19970;-60
2023/09/19 04:49:54;;;;;;;;;;;22.20;53.70;;;;;;5079392;28;19924;-60
2023/09/19 04:52:21;;;;;;;;;;;22.20;53.60;;;;;;5070955;28;19954;-60
2023/09/19 04:54:48;;;;;;;;;;;22.20;53.70;;;;;;5069847;28;20396;-60
2023/09/19 04:57:16;;;;;;;;;;;22.20;53.60;;;;;;5078974;28;20485;-60
2023/09/19 04:59:43;;;;;;;;;;;22.20;53.60;;;;;;5089915;28;19981;-60
2023/09/19 05:02:11;;;;;;;;;;;22.20;53.60;;;;;;5079642;28;19931;-60
2023/09/19 05:04:38;;;;;;;;;;;22.20;53.50;;;;;;5060816;28;19963;-60
2023/09/19 05:07:06;;;;;;;;;;;22.20;53.50;;;;;;5075152;28;19924;-60
2023/09/19 05:09:34;;;;;;;;;;;22.20;53.40;;;;;;5071839;28;19994;-60
2023/09/19 05:12:01;;;;;;;;;;;22.20;53.40;;;;;;5066896;28;19946;-60
2023/09/19 05:14:29;;;;;;;;;;;22.20;53.50;;;;;;5050498;28;19932;-60
2023/09/19 05:16:56;;;;;;;;;;;22.20;53.50;;;;;;5053104;28;19931;-60
2023/09/19 05:19:23;;;;;;;;;;;22.20;53.50;;;;;;5067298;28;20611;-60
2023/09/19 05:21:50;;;;;;;;;;;22.20;53.60;;;;;;5059732;28;19924;-59
2023/09/19 05:24:16;;;;;;;;;;;22.20;53.60;;;;;;5047973;28;20031;-59
2023/09/19 05:26:44;;;;;;;;;;;22.10;53.50;;;;;;5056481;28;19925;-59
2023/09/19 05:29:11;;;;;;;;;;;22.20;53.60;;;;;;5065323;28;19991;-60
2023/09/19 05:31:40;;;;;;;;;;;22.20;53.70;;;;;;5054984;28;20407;-59
2023/09/19 05:34:07;;;;;;;;;;;22.20;53.60;;;;;;5056639;28;19963;-60
2023/09/19 05:36:34;;;;;;;;;;;22.20;53.50;;;;;;5058375;28;19928;-59
2023/09/19 05:39:01;;;;;;;;;;;22.20;53.50;;;;;;5061577;28;19959;-60
2023/09/19 05:41:28;;;;;;;;;;;22.20;53.50;;;;;;5057247;28;19964;-61
2023/09/19 05:43:55;;;;;;;;;;;22.20;53.40;;;;;;5061537;28;19968;-60
2023/09/19 05:46:22;;;;;;;;;;;22.20;53.40;;;;;;5054545;28;19989;-60
2023/09/19 05:48:50;;;;;;;;;;;22.10;53.30;;;;;;5055902;28;19974;-60
2023/09/19 05:51:18;;;;;;;;;;;22.20;53.30;;;;;;5066293;28;20034;-60
2023/09/19 05:53:48;;;;;;;;;;;22.20;53.30;;;;;;5059612;28;19974;-60
2023/09/19 05:56:15;;;;;;;;;;;22.20;53.30;;;;;;5076940;28;20297;-60
2023/09/19 05:58:44;;;;;;;;;;;22.20;53.30;;;;;;5072238;28;19950;-60
2023/09/19 06:01:10;;;;;;;;;;;22.20;53.30;;;;;;5081462;28;19931;-60
2023/09/19 06:03:37;;;;;;;;;;;22.20;53.30;;;;;;5073779;28;19967;-60
2023/09/19 06:06:06;;;;;;;;;;;22.10;53.20;;;;;;5075300;28;19932;-60
2023/09/19 06:08:33;;;;;;;;;;;22.10;53.20;;;;;;5074150;28;19931;-60
2023/09/19 06:11:00;;;;;;;;;;;22.10;53.10;;;;;;5074014;28;19963;-60
2023/09/19 06:13:28;;;;;;;;;;;22.20;53.20;;;;;;5072439;28;20036;-61
2023/09/19 06:15:56;;;;;;;;;;;22.20;53.20;;;;;;5071783;28;19924;-60
2023/09/19 06:18:26;;;;;;;;;;;22.20;53.20;;;;;;5071982;28;19932;-61
2023/09/19 06:20:53;;;;;;;;;;;22.10;53.10;;;;;;5100927;28;19928;-60
2023/09/19 06:23:22;;;;;;;;;;;22.10;53.00;;;;;;5074258;28;20019;-60
2023/09/19 06:25:49;;;;;;;;;;;22.10;53.10;;;;;;5087961;28;19924;-60
2023/09/19 06:28:18;;;;;;;;;;;22.10;53.10;;;;;;5076924;28;20381;-60
2023/09/19 06:30:46;;;;;;;;;;;22.10;53.00;;;;;;5073604;28;19960;-60
2023/09/19 06:33:16;;;;;;;;;;;22.10;53.00;;;;;;5073288;28;20393;-60
2023/09/19 06:35:44;;;;;;;;;;;22.10;53.60;;;;;;5073449;28;19929;-60
2023/09/19 06:38:12;;;;;;;;;;;22.10;53.00;;;;;;5103901;28;19925;-60
2023/09/19 06:40:42;;;;;;;;;;;22.10;53.10;;;;;;5071488;28;20015;-60
2023/09/19 06:43:10;;;;;;;;;;;22.10;53.00;;;;;;5072088;28;20027;-60
2023/09/19 06:45:37;;;;;;;;;;;22.10;53.00;;;;;;5076886;28;19927;-60
2023/09/19 06:48:05;;;;;;;;;;;22.10;53.00;;;;;;5102033;28;19928;-60
2023/09/19 06:50:34;;;;;;;;;;;22.10;53.10;;;;;;5090575;28;19940;-61
2023/09/19 06:53:01;;;;;;;;;;;22.10;53.10;;;;;;5083943;28;19982;-59
2023/09/19 06:55:31;;;;;;;;;;;22.10;53.20;;;;;;5070805;28;19936;-60
2023/09/19 06:57:59;;;;;;;;;;;22.10;53.30;;;;;;5075949;28;19924;-60
2023/09/19 07:00:28;;;;;;;;;;;22.10;53.30;;;;;;5065072;28;19924;-60
2023/09/19 07:02:58;;;;;;;;;;;22.10;53.30;;;;;;5073379;28;19924;-60
2023/09/19 07:05:25;;;;;;;;;;;22.10;53.20;;;;;;5061647;28;20007;-61
2023/09/19 07:07:54;;;;;;;;;;;22.10;53.20;;;;;;5071724;28;19931;-60
2023/09/19 07:10:23;;;;;;;;;;;22.10;53.20;;;;;;5077725;28;19924;-60
2023/09/19 07:12:54;;;;;;;;;;;22.10;53.20;;;;;;5054666;28;19924;-61
2023/09/19 07:15:25;;;;;;;;;;;22.10;53.30;;;;;;5081549;28;19974;-60
2023/09/19 07:17:52;;;;;;;;;;;22.10;53.30;;;;;;5084326;28;19935;-60
2023/09/19 07:20:19;;;;;;;;;;;22.10;53.30;;;;;;5082774;28;19935;-60
2023/09/19 07:22:46;;;;;;;;;;;22.10;53.30;;;;;;5060011;28;19931;-60
2023/09/19 07:25:13;;;;;;;;;;;22.10;53.30;;;;;;5068754;28;19934;-60
2023/09/19 07:27:40;;;;;;;;;;;22.10;53.30;;;;;;5072884;28;19929;-60
2023/09/19 07:30:08;;;;;;;;;;;22.20;53.40;;;;;;5054387;28;20435;-60
2023/09/19 07:32:38;;;;;;;;;;;22.10;53.30;;;;;;5067662;28;19925;-60
2023/09/19 07:35:05;;;;;;;;;;;22.10;53.40;;;;;;5073384;28;19924;-60
2023/09/19 07:37:33;;;;;;;;;;;22.10;53.40;;;;;;5074642;28;19963;-60
2023/09/19 07:39:59;;;;;;;;;;;22.20;53.50;;;;;;5058001;28;20242;-60
2023/09/19 07:42:26;;;;;;;;;;;22.10;53.40;;;;;;5048158;28;19977;-60
2023/09/19 07:44:53;;;;;;;;;;;22.20;53.50;;;;;;5075542;28;19932;-60
2023/09/19 07:47:20;;;;;;;;;;;22.20;53.50;;;;;;5076634;28;19933;-60
2023/09/19 07:49:49;;;;;;;;;;;22.20;53.50;;;;;;5078518;28;19924;-60
2023/09/19 07:52:16;;;;;;;;;;;22.10;53.40;;;;;;5057924;28;19924;-60
2023/09/19 07:54:44;;;;;;;;;;;22.20;53.40;;;;;;5079595;28;19924;-60
2023/09/19 07:57:10;;;;;;;;;;;22.20;53.40;;;;;;5058975;28;19931;-60
2023/09/19 07:59:38;;;;;;;;;;;22.20;53.40;;;;;;5094965;28;20347;-60
2023/09/19 08:02:05;;;;;;;;;;;22.20;53.40;;;;;;5079029;28;20342;-60
2023/09/19 08:04:33;;;;;;;;;;;22.20;53.40;;;;;;5081237;28;20094;-60
2023/09/19 08:07:03;;;;;;;;;;;22.20;53.30;;;;;;5081686;28;19928;-60
2023/09/19 08:09:33;;;;;;;;;;;22.20;53.20;;;;;;5097727;28;19924;-60
2023/09/19 08:12:02;;;;;;;;;;;22.20;53.20;;;;;;5078075;28;19928;-60
2023/09/19 08:14:29;;;;;;;;;;;22.20;53.10;;;;;;5078232;28;19924;-60
2023/09/19 08:16:57;;;;;;;;;;;22.20;53.10;;;;;;5077754;28;19924;-61
2023/09/19 08:19:28;;;;;;;;;;;22.10;52.90;;;;;;5069249;28;19928;-60
2023/09/19 08:21:56;;;;;;;;;;;22.10;52.90;;;;;;5091259;28;19924;-60
2023/09/19 08:24:24;;;;;;;;;;;22.10;52.80;;;;;;5069770;28;19932;-60
2023/09/19 08:26:51;;;;;;;;;;;22.10;52.60;;;;;;5074420;28;19936;-60
2023/09/19 08:29:18;;;;;;;;;;;22.10;52.60;;;;;;5078603;28;19936;-60
2023/09/19 08:31:45;;;;;;;;;;;22.10;52.60;;;;;;5091269;28;19928;-60
2023/09/19 08:34:11;;;;;;;;;;;22.10;52.60;;;;;;5083048;28;19924;-60
2023/09/19 08:36:39;;;;;;;;;;;22.10;52.70;;;;;;5076936;28;19932;-60
2023/09/19 08:39:05;;;;;;;;;;;22.10;52.70;;;;;;5076005;28;19988;-60
2023/09/19 08:41:34;;;;;;;;;;;22.10;52.80;;;;;;5077229;28;19924;-60
2023/09/19 08:44:02;;;;;;;;;;;22.10;52.80;;;;;;5076149;28;19931;-60
2023/09/19 08:46:30;;;;;;;;;;;22.10;52.80;;;;;;5078899;28;19971;-60
2023/09/19 08:48:59;;;;;;;;;;;22.10;52.80;;;;;;5077822;28;20024;-60
2023/09/19 08:51:27;;;;;;;;;;;22.10;52.80;;;;;;5082175;28;19932;-60
2023/09/19 08:53:55;;;;;;;;;;;22.10;52.80;;;;;;5079302;28;19920;-61
2023/09/19 08:56:22;;;;;;;;;;;22.10;52.70;;;;;;5081424;28;19924;-60
2023/09/19 08:58:53;;;;;;;;;;;22.10;52.70;;;;;;5079426;28;19940;-60
2023/09/19 09:01:24;;;;;;;;;;;22.10;53.20;;;;;;5088987;28;19933;-60
2023/09/19 09:03:51;;;;;;;;;;;22.10;52.60;;;;;;5084697;28;19928;-60
2023/09/19 09:06:18;;;;;;;;;;;22.10;52.60;;;;;;5092644;28;20568;-60
2023/09/19 09:08:45;;;;;;;;;;;22.10;52.60;;;;;;5087260;28;19924;-60
2023/09/19 09:11:12;;;;;;;;;;;22.10;52.50;;;;;;5109397;28;20270;-60
2023/09/19 09:13:38;;;;;;;;;;;22.10;52.40;;;;;;5076966;28;19924;-61
2023/09/19 09:16:07;;;;;;;;;;;22.10;52.40;;;;;;5100657;28;19932;-60
2023/09/19 09:18:34;;;;;;;;;;;22.10;52.30;;;;;;5080482;28;19959;-60
2023/09/19 09:21:00;;;;;;;;;;;22.10;52.30;;;;;;5098888;28;19936;-60
2023/09/19 09:23:28;;;;;;;;;;;22.10;52.30;;;;;;5078411;28;19931;-60
2023/09/19 09:25:56;;;;;;;;;;;22.10;52.30;;;;;;5075876;28;19931;-60
2023/09/19 09:28:24;;;;;;;;;;;22.10;52.40;;;;;;5080450;28;20423;-60
2023/09/19 09:30:51;;;;;;;;;;;22.10;52.30;;;;;;5084474;28;19924;-59
2023/09/19 09:33:19;;;;;;;;;;;22.10;52.30;;;;;;5110480;28;20319;-60
2023/09/19 09:35:52;;;;;;;;;;;22.10;52.20;;;;;;5080572;28;20620;-59
2023/09/19 09:38:20;;;;;;;;;;;22.10;52.20;;;;;;5112990;28;19928;-59
2023/09/19 09:40:49;;;;;;;;;;;22.10;52.10;;;;;;5098568;28;19924;-60
2023/09/19 09:43:29;;;;;;;;;;;22.10;52.10;;;;;;5087754;28;19924;-60
2023/09/19 09:46:26;;;;;;;;;;;22.10;52.10;;;;;;5089283;28;19959;-60
2023/09/19 09:49:15;;;;;;;;;;;22.10;52.10;;;;;;5083567;28;20244;-59
2023/09/19 09:51:42;;;;;;;;;;;22.10;52.10;;;;;;5094190;28;19931;-59
2023/09/19 09:54:14;;;;;;;;;;;22.10;52.00;;;;;;5102224;28;19935;-60
2023/09/19 09:56:52;;;;;;;;;;;22.10;51.90;;;;;;5086431;28;20385;-60
2023/09/19 09:59:23;;;;;;;;;;;22.10;51.70;;;;;;5087571;28;19946;-60
2023/09/19 10:01:53;;;;;;;;;;;22.10;51.60;;;;;;5075436;28;19928;-60
2023/09/19 10:04:31;;;;;;;;;;;22.10;51.40;;;;;;5090983;28;19932;-60
2023/09/19 10:07:02;;;;;;;;;;;22.10;51.20;;;;;;5085203;28;19929;-60
2023/09/19 10:09:36;;;;;;;;;;;22.10;51.20;;;;;;5081859;28;19929;-60
2023/09/19 10:12:05;;;;;;;;;;;22.10;51.10;;;;;;5095140;28;19929;-59
2023/09/19 10:14:32;;;;;;;;;;;22.10;51.10;;;;;;5081558;28;19924;-59
2023/09/19 10:17:03;;;;;;;;;;;22.10;51.10;;;;;;5086394;28;19934;-60
2023/09/19 10:19:33;;;;;;;;;;;22.10;51.00;;;;;;5076486;28;19934;-60
2023/09/19 10:22:01;;;;;;;;;;;22.10;51.10;;;;;;5081299;28;20051;-60
2023/09/19 10:24:27;;;;;;;;;;;22.10;51.10;;;;;;5089720;28;19993;-59
2023/09/19 10:26:54;;;;;;;;;;;22.10;51.10;;;;;;5100209;28;19924;-60
2023/09/19 10:29:21;;;;;;;;;;;22.10;51.20;;;;;;5087749;28;19924;-60
2023/09/19 10:31:48;;;;;;;;;;;22.10;51.10;;;;;;5084896;28;19928;-60
2023/09/19 10:34:15;;;;;;;;;;;22.10;51.00;;;;;;5085731;28;19964;-59
2023/09/19 10:36:44;;;;;;;;;;;22.10;50.90;;;;;;5079455;28;19924;-59
2023/09/19 10:39:12;;;;;;;;;;;22.10;50.80;;;;;;5059406;28;19975;-60
2023/09/19 10:41:39;;;;;;;;;;;22.10;50.70;;;;;;5094323;28;19963;-60
2023/09/19 10:44:06;;;;;;;;;;;22.10;50.60;;;;;;5071930;28;19925;-60
2023/09/19 10:46:32;;;;;;;;;;;22.10;50.50;;;;;;5066320;28;19934;-60
2023/09/19 10:49:00;;;;;;;;;;;22.10;50.50;;;;;;5073839;28;19964;-60
2023/09/19 10:51:28;;;;;;;;;;;22.10;50.50;;;;;;5096514;28;19925;-59
2023/09/19 10:53:58;;;;;;;;;;;22.10;50.50;;;;;;5085218;28;19974;-59
2023/09/19 10:56:27;;;;;;;;;;;22.10;50.50;;;;;;5070904;28;19932;-59
2023/09/19 10:59:01;;;;;;;;;;;22.10;50.50;;;;;;5079631;28;19977;-59
2023/09/19 11:01:41;;;;;;;;;;;22.10;50.60;;;;;;5075081;28;19951;-59
2023/09/19 11:04:22;;;;;;;;;;;22.10;50.60;;;;;;5068219;28;20359;-58
2023/09/19 11:06:59;;;;;;;;;;;22.10;50.60;;;;;;5070395;28;19925;-57
2023/09/19 11:09:28;;;;;;;;;;;22.10;50.60;;;;;;5077514;28;19924;-60
2023/09/19 11:11:57;;;;;;;;;;;22.10;50.50;;;;;;5069422;28;20408;-60
2023/09/19 11:14:45;;;;;;;;;;;22.10;50.40;;;;;;5095533;28;19954;-59
2023/09/19 11:17:42;;;;;;;;;;;22.10;51.00;;;;;;5076187;28;19924;-59
2023/09/19 11:20:24;;;;;;;;;;;22.10;50.30;;;;;;5097642;28;19935;-57
2023/09/19 11:23:09;;;;;;;;;;;22.10;50.30;;;;;;5081670;28;19935;-60
2023/09/19 11:25:47;;;;;;;;;;;22.10;50.30;;;;;;5085033;28;19931;-59
2023/09/19 11:28:32;;;;;;;;;;;22.10;50.30;;;;;;5067639;28;19975;-60
2023/09/19 11:30:59;;;;;;;;;;;22.10;50.30;;;;;;5080365;28;20408;-60
2023/09/19 11:33:31;;;;;;;;;;;22.10;50.20;;;;;;5091467;28;19927;-60
2023/09/19 11:36:00;;;;;;;;;;;22.20;50.00;;;;;;5060797;28;19931;-60
2023/09/19 11:38:42;;;;;;;;;;;22.20;50.00;;;;;;5074606;28;19924;-60
2023/09/19 11:41:28;;;;;;;;;;;22.20;49.90;;;;;;5102735;28;19993;-60
2023/09/19 11:44:12;;;;;;;;;;;22.10;49.70;;;;;;5072565;28;19948;-60
2023/09/19 11:46:53;;;;;;;;;;;22.10;50.20;;;;;;5067362;28;19928;-60
2023/09/19 11:49:20;;;;;;;;;;;22.20;49.70;;;;;;5077039;28;19928;-60
2023/09/19 11:51:50;;;;;;;;;;;22.20;49.70;;;;;;5080167;28;19975;-60
2023/09/19 11:54:18;;;;;;;;;;;22.20;49.70;;;;;;5069496;28;19990;-60
2023/09/19 11:56:45;;;;;;;;;;;22.10;49.60;;;;;;5087932;28;19937;-60
2023/09/19 11:59:14;;;;;;;;;;;22.10;49.70;;;;;;5075505;28;19931;-60
2023/09/19 12:01:44;;;;;;;;;;;22.10;49.70;;;;;;5080476;28;19943;-60
2023/09/19 12:04:12;;;;;;;;;;;22.20;49.80;;;;;;5070291;28;20345;-60
2023/09/19 12:06:41;;;;;;;;;;;22.20;49.90;;;;;;5075432;28;19929;-61
2023/09/19 12:09:11;;;;;;;;;;;22.20;49.80;;;;;;5095611;28;19928;-61
2023/09/19 12:11:43;;;;;;;;;;;22.20;49.80;;;;;;5083601;28;19928;-61
2023/09/19 12:14:10;;;;;;;;;;;22.20;49.70;;;;;;5061599;28;19929;-60
2023/09/19 12:16:39;;;;;;;;;;;22.20;49.70;;;;;;5064661;28;19970;-60
2023/09/19 12:19:29;;;;;;;;;;;22.20;49.70;;;;;;5069620;28;19931;-60
2023/09/19 12:22:04;;;;;;;;;;;22.20;49.80;;;;;;5044952;28;19928;-61
2023/09/19 12:24:31;;;;;;;;;;;22.20;49.80;;;;;;5069005;28;19928;-60
2023/09/19 12:27:01;;;;;;;;;;;22.20;49.80;;;;;;5072463;28;19925;-60
2023/09/19 12:29:29;;;;;;;;;;;22.20;49.80;;;;;;5060698;28;19928;-60
2023/09/19 12:31:58;;;;;;;;;;;22.20;49.80;;;;;;5080207;28;20404;-60
2023/09/19 12:34:27;;;;;;;;;;;22.20;49.80;;;;;;5066832;28;19932;-60
2023/09/19 12:37:11;;;;;;;;;;;22.20;49.90;;;;;;5068766;28;19929;-60
2023/09/19 12:39:38;;;;;;;;;;;22.20;50.00;;;;;;5101117;28;20361;-61
2023/09/19 12:42:08;;;;;;;;;;;22.20;50.50;;;;;;5068641;28;19925;-60
2023/09/19 12:44:35;;;;;;;;;;;22.20;49.90;;;;;;5078976;28;19925;-60
2023/09/19 12:47:10;;;;;;;;;;;22.20;49.90;;;;;;5070830;28;19935;-59
2023/09/19 12:49:37;;;;;;;;;;;22.20;49.90;;;;;;5070622;28;19931;-60
2023/09/19 12:52:04;;;;;;;;;;;22.20;49.80;;;;;;5073096;28;20358;-59
2023/09/19 12:54:39;;;;;;;;;;;22.20;49.70;;;;;;5078395;28;19929;-59
2023/09/19 12:57:06;;;;;;;;;;;22.20;49.70;;;;;;5090133;28;19930;-60
2023/09/19 12:59:33;;;;;;;;;;;22.20;49.60;;;;;;5047169;28;19944;-60
2023/09/19 13:02:05;;;;;;;;;;;22.20;49.60;;;;;;5030838;28;19928;-60
2023/09/19 13:04:40;;;;;;;;;;;22.20;49.50;;;;;;5035117;28;19928;-60
2023/09/19 13:07:07;;;;;;;;;;;22.20;49.60;;;;;;5034919;28;19925;-60
2023/09/19 13:09:35;;;;;;;;;;;22.20;49.60;;;;;;5043624;28;19924;-59
2023/09/19 13:12:02;;;;;;;;;;;22.20;49.60;;;;;;5039324;28;20016;-59
2023/09/19 13:14:31;;;;;;;;;;;22.20;49.60;;;;;;5039955;28;19932;-59
2023/09/19 13:17:04;;;;;;;;;;;22.20;49.60;;;;;;5042325;28;19924;-58
2023/09/19 13:19:39;;;;;;;;;;;22.20;49.50;;;;;;5023533;28;19932;-60
2023/09/19 13:22:08;;;;;;;;;;;22.20;49.50;;;;;;5043996;28;19925;-60
2023/09/19 13:24:40;;;;;;;;;;;22.20;49.60;;;;;;5041722;28;19925;-59
2023/09/19 13:27:07;;;;;;;;;;;22.20;49.60;;;;;;5034804;28;20015;-59
2023/09/19 13:29:33;;;;;;;;;;;22.20;49.60;;;;;;5025803;28;19929;-59
2023/09/19 13:32:00;;;;;;;;;;;22.20;49.60;;;;;;5028480;28;19925;-60
2023/09/19 13:34:29;;;;;;;;;;;22.20;49.60;;;;;;5032471;28;19921;-59
2023/09/19 13:36:58;;;;;;;;;;;22.30;49.60;;;;;;5043669;28;20413;-60
2023/09/19 13:39:25;;;;;;;;;;;22.30;49.60;;;;;;5040141;28;20054;-59
2023/09/19 13:41:52;;;;;;;;;;;22.30;49.50;;;;;;5032554;28;20008;-59
2023/09/19 13:44:19;;;;;;;;;;;22.30;49.40;;;;;;5034035;28;19998;-59
2023/09/19 13:46:46;;;;;;;;;;;22.30;49.30;;;;;;5045123;28;19972;-59
2023/09/19 13:49:13;;;;;;;;;;;22.30;49.30;;;;;;5041152;28;20349;-59
2023/09/19 13:51:43;;;;;;;;;;;22.30;49.20;;;;;;5032697;28;19925;-59
2023/09/19 13:54:12;;;;;;;;;;;22.30;49.30;;;;;;5027454;28;19935;-59
2023/09/19 13:56:39;;;;;;;;;;;22.30;49.20;;;;;;5050118;28;19925;-59
2023/09/19 13:59:06;;;;;;;;;;;22.30;49.20;;;;;;5065548;28;19931;-59
2023/09/19 14:01:33;;;;;;;;;;;22.30;49.20;;;;;;5065461;28;19977;-59
2023/09/19 14:04:00;;;;;;;;;;;22.30;49.20;;;;;;5076633;28;19955;-59
2023/09/19 14:06:26;;;;;;;;;;;22.30;49.10;;;;;;5076747;28;19933;-59
2023/09/19 14:08:53;;;;;;;;;;;22.30;49.00;;;;;;5055367;28;20323;-59
2023/09/19 14:11:21;;;;;;;;;;;22.30;49.00;;;;;;5077103;28;20250;-59
2023/09/19 14:13:48;;;;;;;;;;;22.30;49.00;;;;;;5054971;28;19932;-59
2023/09/19 14:16:16;;;;;;;;;;;22.30;49.00;;;;;;5064351;28;19924;-59
2023/09/19 14:18:43;;;;;;;;;;;22.30;49.00;;;;;;5078011;28;19928;-59
2023/09/19 14:21:11;;;;;;;;;;;22.30;49.00;;;;;;5074234;28;20339;-60
2023/09/19 14:23:37;;;;;;;;;;;22.30;49.10;;;;;;5069394;28;19927;-60
2023/09/19 14:26:05;;;;;;;;;;;22.30;49.30;;;;;;5075290;28;19933;-60